sensor_id;sensor_type;location;lat;lon;timestamp;temperature;humidity
81202;DHT22;71068;47.662;-2.750;2023-12-20T00:01:13;10.80;71.30
81202;DHT22;71068;47.662;-2.750;2023-12-20T00:03:38;10.70;71.60
81202;DHT22;71068;47.662;-2.750;2023-12-20T00:06:05;10.80;71.40
81202;DHT22;71068;47.662;-2.750;2023-12-20T00:08:32;10.60;71.30
81202;DHT22;71068;47.662;-2.750;2023-12-20T00:10:59;10.70;71.80
81202;DHT22;71068;47.662;-2.750;2023-12-20T00:13:24;10.70;71.90
81202;DHT22;71068;47.662;-2.750;2023-12-20T00:15:50;10.70;71.90
81202;DHT22;71068;47.662;-2.750;2023-12-20T00:18:17;10.70;71.90
81202;DHT22;71068;47.662;-2.750;2023-12-20T00:20:46;10.70;72.30
81202;DHT22;71068;47.662;-2.750;2023-12-20T00:23:14;10.80;72.40
81202;DHT22;71068;47.662;-2.750;2023-12-20T00:25:40;10.80;71.90
81202;DHT22;71068;47.662;-2.750;2023-12-20T00:28:06;10.70;72.10
81202;DHT22;71068;47.662;-2.750;2023-12-20T00:30:32;10.70;71.20
81202;DHT22;71068;47.662;-2.750;2023-12-20T00:33:02;10.70;72.10
81202;DHT22;71068;47.662;-2.750;2023-12-20T00:35:28;10.80;72.00
81202;DHT22;71068;47.662;-2.750;2023-12-20T00:37:53;10.70;72.50
81202;DHT22;71068;47.662;-2.750;2023-12-20T00:40:20;10.70;72.40
81202;DHT22;71068;47.662;-2.750;2023-12-20T00:42:46;10.70;72.70
81202;DHT22;71068;47.662;-2.750;2023-12-20T00:45:12;10.60;72.40
81202;DHT22;71068;47.662;-2.750;2023-12-20T00:47:40;10.60;72.70
81202;DHT22;71068;47.662;-2.750;2023-12-20T00:50:09;10.60;72.90
81202;DHT22;71068;47.662;-2.750;2023-12-20T00:52:35;10.70;72.80
81202;DHT22;71068;47.662;-2.750;2023-12-20T00:55:01;10.50;72.60
81202;DHT22;71068;47.662;-2.750;2023-12-20T00:57:27;10.40;72.90
81202;DHT22;71068;47.662;-2.750;2023-12-20T00:59:53;10.30;73.10
81202;DHT22;71068;47.662;-2.750;2023-12-20T01:02:19;10.30;73.40
81202;DHT22;71068;47.662;-2.750;2023-12-20T01:04:44;10.20;73.40
81202;DHT22;71068;47.662;-2.750;2023-12-20T01:07:10;10.10;73.80
81202;DHT22;71068;47.662;-2.750;2023-12-20T01:09:36;10.10;73.70
81202;DHT22;71068;47.662;-2.750;2023-12-20T01:12:03;9.90;73.80
81202;DHT22;71068;47.662;-2.750;2023-12-20T01:14:29;10.00;73.90
81202;DHT22;71068;47.662;-2.750;2023-12-20T01:16:55;10.00;74.10
81202;DHT22;71068;47.662;-2.750;2023-12-20T01:19:21;9.90;74.30
81202;DHT22;71068;47.662;-2.750;2023-12-20T01:21:47;10.00;74.40
81202;DHT22;71068;47.662;-2.750;2023-12-20T01:24:13;10.00;74.40
81202;DHT22;71068;47.662;-2.750;2023-12-20T01:26:40;10.10;74.60
81202;DHT22;71068;47.662;-2.750;2023-12-20T01:29:06;10.10;74.50
81202;DHT22;71068;47.662;-2.750;2023-12-20T01:31:32;10.10;74.20
81202;DHT22;71068;47.662;-2.750;2023-12-20T01:34:00;10.20;74.20
81202;DHT22;71068;47.662;-2.750;2023-12-20T01:36:26;10.10;74.30
81202;DHT22;71068;47.662;-2.750;2023-12-20T01:38:52;10.10;74.00
81202;DHT22;71068;47.662;-2.750;2023-12-20T01:41:18;10.00;74.20
81202;DHT22;71068;47.662;-2.750;2023-12-20T01:43:44;10.10;74.20
81202;DHT22;71068;47.662;-2.750;2023-12-20T01:46:10;10.10;74.10
81202;DHT22;71068;47.662;-2.750;2023-12-20T01:48:38;10.00;74.20
81202;DHT22;71068;47.662;-2.750;2023-12-20T01:51:04;9.90;74.20
81202;DHT22;71068;47.662;-2.750;2023-12-20T01:53:31;9.80;74.10
81202;DHT22;71068;47.662;-2.750;2023-12-20T01:55:58;9.90;74.40
81202;DHT22;71068;47.662;-2.750;2023-12-20T01:58:27;9.70;74.10
81202;DHT22;71068;47.662;-2.750;2023-12-20T02:00:54;9.60;74.90
81202;DHT22;71068;47.662;-2.750;2023-12-20T02:03:23;9.50;75.00
81202;DHT22;71068;47.662;-2.750;2023-12-20T02:05:50;9.50;75.30
81202;DHT22;71068;47.662;-2.750;2023-12-20T02:08:17;9.40;75.40
81202;DHT22;71068;47.662;-2.750;2023-12-20T02:10:43;9.50;75.30
81202;DHT22;71068;47.662;-2.750;2023-12-20T02:13:09;9.50;75.10
81202;DHT22;71068;47.662;-2.750;2023-12-20T02:15:35;9.50;75.10
81202;DHT22;71068;47.662;-2.750;2023-12-20T02:18:03;9.60;75.20
81202;DHT22;71068;47.662;-2.750;2023-12-20T02:20:30;9.50;75.00
81202;DHT22;71068;47.662;-2.750;2023-12-20T02:22:56;9.50;75.10
81202;DHT22;71068;47.662;-2.750;2023-12-20T02:25:21;9.40;75.20
81202;DHT22;71068;47.662;-2.750;2023-12-20T02:27:48;9.40;75.30
81202;DHT22;71068;47.662;-2.750;2023-12-20T02:30:14;9.30;75.30
81202;DHT22;71068;47.662;-2.750;2023-12-20T02:32:40;9.20;75.80
81202;DHT22;71068;47.662;-2.750;2023-12-20T02:35:07;9.20;75.90
81202;DHT22;71068;47.662;-2.750;2023-12-20T02:37:33;9.00;76.00
81202;DHT22;71068;47.662;-2.750;2023-12-20T02:40:03;9.00;76.90
81202;DHT22;71068;47.662;-2.750;2023-12-20T02:42:32;9.10;76.80
81202;DHT22;71068;47.662;-2.750;2023-12-20T02:44:58;9.00;76.70
81202;DHT22;71068;47.662;-2.750;2023-12-20T02:47:24;9.20;76.60
81202;DHT22;71068;47.662;-2.750;2023-12-20T02:49:50;9.30;76.50
81202;DHT22;71068;47.662;-2.750;2023-12-20T02:52:20;9.30;76.40
81202;DHT22;71068;47.662;-2.750;2023-12-20T02:54:51;9.30;76.20
81202;DHT22;71068;47.662;-2.750;2023-12-20T02:57:17;9.40;76.30
81202;DHT22;71068;47.662;-2.750;2023-12-20T02:59:46;9.30;76.40
81202;DHT22;71068;47.662;-2.750;2023-12-20T03:02:13;9.40;76.50
81202;DHT22;71068;47.662;-2.750;2023-12-20T03:04:39;9.40;76.30
81202;DHT22;71068;47.662;-2.750;2023-12-20T03:07:05;9.40;76.20
81202;DHT22;71068;47.662;-2.750;2023-12-20T03:09:31;9.60;76.10
81202;DHT22;71068;47.662;-2.750;2023-12-20T03:11:57;9.50;76.10
81202;DHT22;71068;47.662;-2.750;2023-12-20T03:14:23;9.50;76.10
81202;DHT22;71068;47.662;-2.750;2023-12-20T03:16:50;9.50;76.10
81202;DHT22;71068;47.662;-2.750;2023-12-20T03:19:19;9.60;76.10
81202;DHT22;71068;47.662;-2.750;2023-12-20T03:21:45;9.60;76.00
81202;DHT22;71068;47.662;-2.750;2023-12-20T03:24:13;9.60;76.40
81202;DHT22;71068;47.662;-2.750;2023-12-20T03:26:39;9.60;76.50
81202;DHT22;71068;47.662;-2.750;2023-12-20T03:29:05;9.50;76.80
81202;DHT22;71068;47.662;-2.750;2023-12-20T03:31:34;9.50;77.40
81202;DHT22;71068;47.662;-2.750;2023-12-20T03:34:00;9.50;77.60
81202;DHT22;71068;47.662;-2.750;2023-12-20T03:36:26;9.40;77.80
81202;DHT22;71068;47.662;-2.750;2023-12-20T03:38:52;9.40;77.70
81202;DHT22;71068;47.662;-2.750;2023-12-20T03:41:17;9.40;78.10
81202;DHT22;71068;47.662;-2.750;2023-12-20T03:43:43;9.40;77.60
81202;DHT22;71068;47.662;-2.750;2023-12-20T03:46:09;9.50;77.50
81202;DHT22;71068;47.662;-2.750;2023-12-20T03:48:35;9.50;77.50
81202;DHT22;71068;47.662;-2.750;2023-12-20T03:51:01;9.40;77.50
81202;DHT22;71068;47.662;-2.750;2023-12-20T03:53:27;9.40;77.20
81202;DHT22;71068;47.662;-2.750;2023-12-20T03:55:53;9.30;77.60
81202;DHT22;71068;47.662;-2.750;2023-12-20T03:58:19;9.30;77.50
81202;DHT22;71068;47.662;-2.750;2023-12-20T04:00:45;9.30;77.60
81202;DHT22;71068;47.662;-2.750;2023-12-20T04:03:11;9.40;77.50
81202;DHT22;71068;47.662;-2.750;2023-12-20T04:05:40;9.30;77.30
81202;DHT22;71068;47.662;-2.750;2023-12-20T04:08:07;9.30;77.20
81202;DHT22;71068;47.662;-2.750;2023-12-20T04:10:34;9.30;77.40
81202;DHT22;71068;47.662;-2.750;2023-12-20T04:13:00;9.30;77.80
81202;DHT22;71068;47.662;-2.750;2023-12-20T04:15:29;9.30;77.80
81202;DHT22;71068;47.662;-2.750;2023-12-20T04:17:55;9.30;77.80
81202;DHT22;71068;47.662;-2.750;2023-12-20T04:20:21;9.30;77.60
81202;DHT22;71068;47.662;-2.750;2023-12-20T04:22:47;9.20;77.60
81202;DHT22;71068;47.662;-2.750;2023-12-20T04:25:13;9.40;77.60
81202;DHT22;71068;47.662;-2.750;2023-12-20T04:27:39;9.40;77.70
81202;DHT22;71068;47.662;-2.750;2023-12-20T04:30:05;9.30;77.60
81202;DHT22;71068;47.662;-2.750;2023-12-20T04:32:35;9.40;77.70
81202;DHT22;71068;47.662;-2.750;2023-12-20T04:35:01;9.40;77.70
81202;DHT22;71068;47.662;-2.750;2023-12-20T04:37:27;9.40;77.70
81202;DHT22;71068;47.662;-2.750;2023-12-20T04:39:53;9.30;77.50
81202;DHT22;71068;47.662;-2.750;2023-12-20T04:42:25;9.30;77.80
81202;DHT22;71068;47.662;-2.750;2023-12-20T04:44:51;9.20;78.00
81202;DHT22;71068;47.662;-2.750;2023-12-20T04:47:17;9.20;78.40
81202;DHT22;71068;47.662;-2.750;2023-12-20T04:49:46;9.10;78.40
81202;DHT22;71068;47.662;-2.750;2023-12-20T04:52:12;9.10;78.40
81202;DHT22;71068;47.662;-2.750;2023-12-20T04:54:38;9.10;78.40
81202;DHT22;71068;47.662;-2.750;2023-12-20T04:57:04;9.10;78.20
81202;DHT22;71068;47.662;-2.750;2023-12-20T04:59:34;9.00;78.60
81202;DHT22;71068;47.662;-2.750;2023-12-20T05:02:00;9.00;78.90
81202;DHT22;71068;47.662;-2.750;2023-12-20T05:04:29;8.90;79.20
81202;DHT22;71068;47.662;-2.750;2023-12-20T05:06:54;8.90;79.30
81202;DHT22;71068;47.662;-2.750;2023-12-20T05:09:23;8.90;79.60
81202;DHT22;71068;47.662;-2.750;2023-12-20T05:11:49;8.90;79.50
81202;DHT22;71068;47.662;-2.750;2023-12-20T05:14:15;8.80;79.70
81202;DHT22;71068;47.662;-2.750;2023-12-20T05:16:41;8.80;79.70
81202;DHT22;71068;47.662;-2.750;2023-12-20T05:19:07;8.80;79.80
81202;DHT22;71068;47.662;-2.750;2023-12-20T05:21:33;8.80;79.80
81202;DHT22;71068;47.662;-2.750;2023-12-20T05:23:59;8.80;79.70
81202;DHT22;71068;47.662;-2.750;2023-12-20T05:26:26;8.80;79.60
81202;DHT22;71068;47.662;-2.750;2023-12-20T05:28:52;8.80;79.40
81202;DHT22;71068;47.662;-2.750;2023-12-20T05:31:18;8.80;79.20
81202;DHT22;71068;47.662;-2.750;2023-12-20T05:33:43;8.90;79.20
81202;DHT22;71068;47.662;-2.750;2023-12-20T05:36:09;8.90;79.20
81202;DHT22;71068;47.662;-2.750;2023-12-20T05:38:39;8.80;79.30
81202;DHT22;71068;47.662;-2.750;2023-12-20T05:41:05;8.80;79.40
81202;DHT22;71068;47.662;-2.750;2023-12-20T05:43:31;8.80;79.30
81202;DHT22;71068;47.662;-2.750;2023-12-20T05:45:58;8.80;79.50
81202;DHT22;71068;47.662;-2.750;2023-12-20T05:48:24;8.80;79.60
81202;DHT22;71068;47.662;-2.750;2023-12-20T05:50:50;8.80;79.50
81202;DHT22;71068;47.662;-2.750;2023-12-20T05:53:16;8.80;79.30
81202;DHT22;71068;47.662;-2.750;2023-12-20T05:55:46;8.80;79.10
81202;DHT22;71068;47.662;-2.750;2023-12-20T05:58:12;8.80;78.90
81202;DHT22;71068;47.662;-2.750;2023-12-20T06:00:41;8.80;78.80
81202;DHT22;71068;47.662;-2.750;2023-12-20T06:03:06;8.80;78.70
81202;DHT22;71068;47.662;-2.750;2023-12-20T06:05:32;8.70;78.60
81202;DHT22;71068;47.662;-2.750;2023-12-20T06:07:58;8.70;78.80
81202;DHT22;71068;47.662;-2.750;2023-12-20T06:10:28;8.70;78.60
81202;DHT22;71068;47.662;-2.750;2023-12-20T06:12:55;8.70;78.80
81202;DHT22;71068;47.662;-2.750;2023-12-20T06:15:22;8.70;78.70
81202;DHT22;71068;47.662;-2.750;2023-12-20T06:17:47;8.60;79.20
81202;DHT22;71068;47.662;-2.750;2023-12-20T06:20:13;8.50;79.40
81202;DHT22;71068;47.662;-2.750;2023-12-20T06:22:39;8.50;79.50
81202;DHT22;71068;47.662;-2.750;2023-12-20T06:25:05;8.50;79.50
81202;DHT22;71068;47.662;-2.750;2023-12-20T06:27:35;8.60;79.40
81202;DHT22;71068;47.662;-2.750;2023-12-20T06:30:05;8.60;79.20
81202;DHT22;71068;47.662;-2.750;2023-12-20T06:32:31;8.60;79.10
81202;DHT22;71068;47.662;-2.750;2023-12-20T06:34:57;8.70;79.20
81202;DHT22;71068;47.662;-2.750;2023-12-20T06:37:23;8.80;79.10
81202;DHT22;71068;47.662;-2.750;2023-12-20T06:39:49;8.70;79.10
81202;DHT22;71068;47.662;-2.750;2023-12-20T06:42:15;8.80;79.40
81202;DHT22;71068;47.662;-2.750;2023-12-20T06:44:41;8.70;79.50
81202;DHT22;71068;47.662;-2.750;2023-12-20T06:47:10;8.80;79.50
81202;DHT22;71068;47.662;-2.750;2023-12-20T06:49:36;8.70;79.90
81202;DHT22;71068;47.662;-2.750;2023-12-20T06:52:02;8.80;80.20
81202;DHT22;71068;47.662;-2.750;2023-12-20T06:54:28;8.70;80.40
81202;DHT22;71068;47.662;-2.750;2023-12-20T06:56:54;8.70;80.40
81202;DHT22;71068;47.662;-2.750;2023-12-20T06:59:20;8.70;80.60
81202;DHT22;71068;47.662;-2.750;2023-12-20T07:01:49;8.90;80.60
81202;DHT22;71068;47.662;-2.750;2023-12-20T07:04:19;8.80;80.60
81202;DHT22;71068;47.662;-2.750;2023-12-20T07:06:48;8.80;80.40
81202;DHT22;71068;47.662;-2.750;2023-12-20T07:09:19;8.90;80.10
81202;DHT22;71068;47.662;-2.750;2023-12-20T07:11:49;8.90;80.20
81202;DHT22;71068;47.662;-2.750;2023-12-20T07:14:18;8.90;80.00
81202;DHT22;71068;47.662;-2.750;2023-12-20T07:16:44;8.90;79.80
81202;DHT22;71068;47.662;-2.750;2023-12-20T07:19:10;8.90;79.80
81202;DHT22;71068;47.662;-2.750;2023-12-20T07:21:36;8.90;79.80
81202;DHT22;71068;47.662;-2.750;2023-12-20T07:24:04;8.90;79.70
81202;DHT22;71068;47.662;-2.750;2023-12-20T07:26:32;8.80;79.60
81202;DHT22;71068;47.662;-2.750;2023-12-20T07:29:02;8.80;79.70
81202;DHT22;71068;47.662;-2.750;2023-12-20T07:31:31;8.80;79.80
81202;DHT22;71068;47.662;-2.750;2023-12-20T07:33:58;8.60;80.20
81202;DHT22;71068;47.662;-2.750;2023-12-20T07:36:26;8.50;80.70
81202;DHT22;71068;47.662;-2.750;2023-12-20T07:38:58;8.50;80.90
81202;DHT22;71068;47.662;-2.750;2023-12-20T07:41:24;8.60;80.80
81202;DHT22;71068;47.662;-2.750;2023-12-20T07:43:53;8.70;80.60
81202;DHT22;71068;47.662;-2.750;2023-12-20T07:46:21;8.70;80.30
81202;DHT22;71068;47.662;-2.750;2023-12-20T07:48:50;8.70;80.20
81202;DHT22;71068;47.662;-2.750;2023-12-20T07:51:16;8.70;80.00
81202;DHT22;71068;47.662;-2.750;2023-12-20T07:53:42;8.80;79.90
81202;DHT22;71068;47.662;-2.750;2023-12-20T07:56:17;8.70;79.70
81202;DHT22;71068;47.662;-2.750;2023-12-20T07:58:45;8.80;79.70
81202;DHT22;71068;47.662;-2.750;2023-12-20T08:01:12;8.70;79.60
81202;DHT22;71068;47.662;-2.750;2023-12-20T08:03:38;8.70;79.60
81202;DHT22;71068;47.662;-2.750;2023-12-20T08:06:08;8.70;79.60
81202;DHT22;71068;47.662;-2.750;2023-12-20T08:08:34;8.80;79.60
81202;DHT22;71068;47.662;-2.750;2023-12-20T08:11:00;8.70;79.70
81202;DHT22;71068;47.662;-2.750;2023-12-20T08:13:27;8.70;79.80
81202;DHT22;71068;47.662;-2.750;2023-12-20T08:15:54;8.70;79.90
81202;DHT22;71068;47.662;-2.750;2023-12-20T08:18:21;8.80;79.90
81202;DHT22;71068;47.662;-2.750;2023-12-20T08:20:48;8.80;79.90
81202;DHT22;71068;47.662;-2.750;2023-12-20T08:23:14;8.70;79.90
81202;DHT22;71068;47.662;-2.750;2023-12-20T08:25:41;8.70;79.80
81202;DHT22;71068;47.662;-2.750;2023-12-20T08:28:07;8.70;79.90
81202;DHT22;71068;47.662;-2.750;2023-12-20T08:30:32;8.60;80.20
81202;DHT22;71068;47.662;-2.750;2023-12-20T08:33:01;8.50;80.50
81202;DHT22;71068;47.662;-2.750;2023-12-20T08:35:28;8.50;81.00
81202;DHT22;71068;47.662;-2.750;2023-12-20T08:37:54;8.60;80.90
81202;DHT22;71068;47.662;-2.750;2023-12-20T08:40:31;8.70;81.10
81202;DHT22;71068;47.662;-2.750;2023-12-20T08:43:01;8.80;81.00
81202;DHT22;71068;47.662;-2.750;2023-12-20T08:45:28;8.80;81.20
81202;DHT22;71068;47.662;-2.750;2023-12-20T08:47:57;8.90;80.90
81202;DHT22;71068;47.662;-2.750;2023-12-20T08:50:37;9.00;80.60
81202;DHT22;71068;47.662;-2.750;2023-12-20T08:53:10;9.00;80.30
81202;DHT22;71068;47.662;-2.750;2023-12-20T08:55:37;9.10;80.10
81202;DHT22;71068;47.662;-2.750;2023-12-20T08:58:06;9.10;80.00
81202;DHT22;71068;47.662;-2.750;2023-12-20T09:00:39;9.20;79.80
81202;DHT22;71068;47.662;-2.750;2023-12-20T09:03:06;9.20;79.80
81202;DHT22;71068;47.662;-2.750;2023-12-20T09:05:32;9.30;79.60
81202;DHT22;71068;47.662;-2.750;2023-12-20T09:08:00;9.30;79.50
81202;DHT22;71068;47.662;-2.750;2023-12-20T09:10:26;9.10;79.60
81202;DHT22;71068;47.662;-2.750;2023-12-20T09:12:53;9.00;80.00
81202;DHT22;71068;47.662;-2.750;2023-12-20T09:15:26;9.00;80.50
81202;DHT22;71068;47.662;-2.750;2023-12-20T09:17:53;9.00;80.90
81202;DHT22;71068;47.662;-2.750;2023-12-20T09:20:19;9.00;80.70
81202;DHT22;71068;47.662;-2.750;2023-12-20T09:22:45;9.00;80.80
81202;DHT22;71068;47.662;-2.750;2023-12-20T09:25:13;9.10;80.90
81202;DHT22;71068;47.662;-2.750;2023-12-20T09:27:41;9.20;80.50
81202;DHT22;71068;47.662;-2.750;2023-12-20T09:30:08;9.40;80.60
81202;DHT22;71068;47.662;-2.750;2023-12-20T09:32:35;9.60;80.60
81202;DHT22;71068;47.662;-2.750;2023-12-20T09:35:03;9.80;80.10
81202;DHT22;71068;47.662;-2.750;2023-12-20T09:37:34;9.90;79.80
81202;DHT22;71068;47.662;-2.750;2023-12-20T09:40:00;10.10;79.50
81202;DHT22;71068;47.662;-2.750;2023-12-20T09:42:50;10.30;79.20
81202;DHT22;71068;47.662;-2.750;2023-12-20T09:45:27;10.60;79.50
81202;DHT22;71068;47.662;-2.750;2023-12-20T09:47:53;10.70;78.60
81202;DHT22;71068;47.662;-2.750;2023-12-20T09:50:21;11.00;78.50
81202;DHT22;71068;47.662;-2.750;2023-12-20T09:52:52;11.40;77.80
81202;DHT22;71068;47.662;-2.750;2023-12-20T09:55:19;11.70;78.30
81202;DHT22;71068;47.662;-2.750;2023-12-20T09:57:46;12.00;78.50
81202;DHT22;71068;47.662;-2.750;2023-12-20T10:00:14;12.20;77.40
81202;DHT22;71068;47.662;-2.750;2023-12-20T10:02:50;12.40;77.30
81202;DHT22;71068;47.662;-2.750;2023-12-20T10:05:30;12.50;76.70
81202;DHT22;71068;47.662;-2.750;2023-12-20T10:07:58;12.60;74.70
81202;DHT22;71068;47.662;-2.750;2023-12-20T10:10:24;12.80;75.80
81202;DHT22;71068;47.662;-2.750;2023-12-20T10:13:08;12.90;75.70
81202;DHT22;71068;47.662;-2.750;2023-12-20T10:15:37;13.00;75.70
81202;DHT22;71068;47.662;-2.750;2023-12-20T10:18:06;13.10;75.60
81202;DHT22;71068;47.662;-2.750;2023-12-20T10:20:33;13.10;74.20
81202;DHT22;71068;47.662;-2.750;2023-12-20T10:23:00;13.20;73.50
81202;DHT22;71068;47.662;-2.750;2023-12-20T10:25:27;13.10;74.20
81202;DHT22;71068;47.662;-2.750;2023-12-20T10:28:13;13.10;73.40
81202;DHT22;71068;47.662;-2.750;2023-12-20T10:30:41;13.10;72.60
81202;DHT22;71068;47.662;-2.750;2023-12-20T10:33:11;13.10;73.80
81202;DHT22;71068;47.662;-2.750;2023-12-20T10:35:38;13.10;73.30
81202;DHT22;71068;47.662;-2.750;2023-12-20T10:38:08;13.30;73.80
81202;DHT22;71068;47.662;-2.750;2023-12-20T10:40:35;13.60;74.10
81202;DHT22;71068;47.662;-2.750;2023-12-20T10:43:04;13.50;71.60
81202;DHT22;71068;47.662;-2.750;2023-12-20T10:45:34;13.70;72.40
81202;DHT22;71068;47.662;-2.750;2023-12-20T10:48:01;13.80;72.00
81202;DHT22;71068;47.662;-2.750;2023-12-20T10:50:29;13.80;71.60
81202;DHT22;71068;47.662;-2.750;2023-12-20T10:52:57;13.80;70.90
81202;DHT22;71068;47.662;-2.750;2023-12-20T10:55:24;13.90;72.70
81202;DHT22;71068;47.662;-2.750;2023-12-20T10:58:11;13.80;70.70
81202;DHT22;71068;47.662;-2.750;2023-12-20T11:00:41;14.00;72.80
81202;DHT22;71068;47.662;-2.750;2023-12-20T11:03:13;14.20;71.60
81202;DHT22;71068;47.662;-2.750;2023-12-20T11:05:49;14.20;70.50
81202;DHT22;71068;47.662;-2.750;2023-12-20T11:08:42;14.40;70.30
81202;DHT22;71068;47.662;-2.750;2023-12-20T11:11:20;14.40;69.20
81202;DHT22;71068;47.662;-2.750;2023-12-20T11:14:02;14.50;69.20
81202;DHT22;71068;47.662;-2.750;2023-12-20T11:16:37;14.60;69.10
81202;DHT22;71068;47.662;-2.750;2023-12-20T11:19:07;14.10;68.90
81202;DHT22;71068;47.662;-2.750;2023-12-20T11:21:40;14.30;68.80
81202;DHT22;71068;47.662;-2.750;2023-12-20T11:24:06;14.50;69.80
81202;DHT22;71068;47.662;-2.750;2023-12-20T11:26:35;14.60;70.20
81202;DHT22;71068;47.662;-2.750;2023-12-20T11:29:36;14.90;67.60
81202;DHT22;71068;47.662;-2.750;2023-12-20T11:34:59;15.30;67.50
81202;DHT22;71068;47.662;-2.750;2023-12-20T11:37:35;15.50;68.20
81202;DHT22;71068;47.662;-2.750;2023-12-20T11:40:08;15.70;67.90
81202;DHT22;71068;47.662;-2.750;2023-12-20T11:42:41;15.50;65.50
81202;DHT22;71068;47.662;-2.750;2023-12-20T11:45:13;15.60;66.10
81202;DHT22;71068;47.662;-2.750;2023-12-20T11:47:50;15.50;65.60
81202;DHT22;71068;47.662;-2.750;2023-12-20T11:50:17;15.40;65.30
81202;DHT22;71068;47.662;-2.750;2023-12-20T11:52:44;15.30;67.30
81202;DHT22;71068;47.662;-2.750;2023-12-20T11:55:10;15.50;67.80
81202;DHT22;71068;47.662;-2.750;2023-12-20T11:57:37;15.30;66.00
81202;DHT22;71068;47.662;-2.750;2023-12-20T12:00:05;15.60;66.50
81202;DHT22;71068;47.662;-2.750;2023-12-20T12:02:38;15.70;64.10
81202;DHT22;71068;47.662;-2.750;2023-12-20T12:05:16;15.80;65.40
81202;DHT22;71068;47.662;-2.750;2023-12-20T12:07:42;15.80;65.30
81202;DHT22;71068;47.662;-2.750;2023-12-20T12:10:14;15.80;65.50
81202;DHT22;71068;47.662;-2.750;2023-12-20T12:12:42;15.80;65.60
81202;DHT22;71068;47.662;-2.750;2023-12-20T12:15:11;15.70;65.00
81202;DHT22;71068;47.662;-2.750;2023-12-20T12:17:37;15.80;65.40
81202;DHT22;71068;47.662;-2.750;2023-12-20T12:20:05;16.30;65.50
81202;DHT22;71068;47.662;-2.750;2023-12-20T12:22:32;16.00;63.70
81202;DHT22;71068;47.662;-2.750;2023-12-20T12:25:10;15.70;64.30
81202;DHT22;71068;47.662;-2.750;2023-12-20T12:27:36;15.70;65.70
81202;DHT22;71068;47.662;-2.750;2023-12-20T12:30:06;15.80;66.20
81202;DHT22;71068;47.662;-2.750;2023-12-20T12:32:33;15.70;66.00
81202;DHT22;71068;47.662;-2.750;2023-12-20T12:34:59;15.90;65.40
81202;DHT22;71068;47.662;-2.750;2023-12-20T12:37:26;15.70;64.70
81202;DHT22;71068;47.662;-2.750;2023-12-20T12:39:55;15.50;65.70
81202;DHT22;71068;47.662;-2.750;2023-12-20T12:42:22;15.30;66.20
81202;DHT22;71068;47.662;-2.750;2023-12-20T12:44:51;15.40;67.00
81202;DHT22;71068;47.662;-2.750;2023-12-20T12:47:18;15.30;67.20
81202;DHT22;71068;47.662;-2.750;2023-12-20T12:49:46;15.10;67.80
81202;DHT22;71068;47.662;-2.750;2023-12-20T12:52:13;15.00;67.40
81202;DHT22;71068;47.662;-2.750;2023-12-20T12:54:40;14.70;69.50
81202;DHT22;71068;47.662;-2.750;2023-12-20T12:57:11;14.40;69.90
81202;DHT22;71068;47.662;-2.750;2023-12-20T12:59:37;14.30;71.70
81202;DHT22;71068;47.662;-2.750;2023-12-20T13:02:04;14.20;71.70
81202;DHT22;71068;47.662;-2.750;2023-12-20T13:04:29;14.20;72.50
81202;DHT22;71068;47.662;-2.750;2023-12-20T13:06:57;14.10;73.40
81202;DHT22;71068;47.662;-2.750;2023-12-20T13:09:23;14.00;74.10
81202;DHT22;71068;47.662;-2.750;2023-12-20T13:11:53;14.00;73.60
81202;DHT22;71068;47.662;-2.750;2023-12-20T13:14:20;13.90;73.70
81202;DHT22;71068;47.662;-2.750;2023-12-20T13:16:46;14.00;73.20
81202;DHT22;71068;47.662;-2.750;2023-12-20T13:19:12;14.00;73.70
81202;DHT22;71068;47.662;-2.750;2023-12-20T13:21:40;13.90;75.80
81202;DHT22;71068;47.662;-2.750;2023-12-20T13:24:06;14.00;74.60
81202;DHT22;71068;47.662;-2.750;2023-12-20T13:26:32;14.00;74.40
81202;DHT22;71068;47.662;-2.750;2023-12-20T13:29:03;14.20;73.80
81202;DHT22;71068;47.662;-2.750;2023-12-20T13:31:29;14.20;73.50
81202;DHT22;71068;47.662;-2.750;2023-12-20T13:33:57;14.40;73.20
81202;DHT22;71068;47.662;-2.750;2023-12-20T13:36:26;14.40;73.20
81202;DHT22;71068;47.662;-2.750;2023-12-20T13:38:52;14.60;72.80
81202;DHT22;71068;47.662;-2.750;2023-12-20T13:41:18;14.70;72.50
81202;DHT22;71068;47.662;-2.750;2023-12-20T13:43:45;15.00;72.40
81202;DHT22;71068;47.662;-2.750;2023-12-20T13:46:11;15.10;71.50
81202;DHT22;71068;47.662;-2.750;2023-12-20T13:48:37;15.20;71.20
81202;DHT22;71068;47.662;-2.750;2023-12-20T13:51:03;15.30;71.20
81202;DHT22;71068;47.662;-2.750;2023-12-20T13:53:32;15.40;70.50
81202;DHT22;71068;47.662;-2.750;2023-12-20T13:55:58;15.50;69.70
81202;DHT22;71068;47.662;-2.750;2023-12-20T13:58:31;15.70;70.30
81202;DHT22;71068;47.662;-2.750;2023-12-20T14:00:57;16.00;70.10
81202;DHT22;71068;47.662;-2.750;2023-12-20T14:03:31;16.30;68.10
81202;DHT22;71068;47.662;-2.750;2023-12-20T14:05:58;16.70;68.80
81202;DHT22;71068;47.662;-2.750;2023-12-20T14:08:24;16.70;67.20
81202;DHT22;71068;47.662;-2.750;2023-12-20T14:10:51;16.90;66.20
81202;DHT22;71068;47.662;-2.750;2023-12-20T14:13:17;16.90;64.70
81202;DHT22;71068;47.662;-2.750;2023-12-20T14:15:44;16.90;65.30
81202;DHT22;71068;47.662;-2.750;2023-12-20T14:18:12;16.90;65.80
81202;DHT22;71068;47.662;-2.750;2023-12-20T14:20:42;16.90;66.00
81202;DHT22;71068;47.662;-2.750;2023-12-20T14:23:11;16.90;66.20
81202;DHT22;71068;47.662;-2.750;2023-12-20T14:25:41;16.70;65.30
81202;DHT22;71068;47.662;-2.750;2023-12-20T14:28:08;16.60;65.50
81202;DHT22;71068;47.662;-2.750;2023-12-20T14:30:35;16.50;66.20
81202;DHT22;71068;47.662;-2.750;2023-12-20T14:33:04;16.50;66.40
81202;DHT22;71068;47.662;-2.750;2023-12-20T14:35:30;16.40;66.00
81202;DHT22;71068;47.662;-2.750;2023-12-20T14:37:59;16.20;66.30
81202;DHT22;71068;47.662;-2.750;2023-12-20T14:40:25;16.00;66.70
81202;DHT22;71068;47.662;-2.750;2023-12-20T14:42:51;15.80;67.50
81202;DHT22;71068;47.662;-2.750;2023-12-20T14:45:26;15.50;68.00
81202;DHT22;71068;47.662;-2.750;2023-12-20T14:47:55;15.20;68.20
81202;DHT22;71068;47.662;-2.750;2023-12-20T14:50:22;15.20;68.90
81202;DHT22;71068;47.662;-2.750;2023-12-20T14:52:48;15.10;69.40
81202;DHT22;71068;47.662;-2.750;2023-12-20T14:55:18;14.90;70.30
81202;DHT22;71068;47.662;-2.750;2023-12-20T14:57:45;14.80;71.10
81202;DHT22;71068;47.662;-2.750;2023-12-20T15:00:11;14.60;72.00
81202;DHT22;71068;47.662;-2.750;2023-12-20T15:02:50;14.60;71.90
81202;DHT22;71068;47.662;-2.750;2023-12-20T15:05:16;14.50;72.90
81202;DHT22;71068;47.662;-2.750;2023-12-20T15:07:47;14.30;75.40
81202;DHT22;71068;47.662;-2.750;2023-12-20T15:10:14;14.20;74.50
81202;DHT22;71068;47.662;-2.750;2023-12-20T15:12:40;14.10;74.30
81202;DHT22;71068;47.662;-2.750;2023-12-20T15:15:07;14.00;77.00
81202;DHT22;71068;47.662;-2.750;2023-12-20T15:17:35;13.80;77.60
81202;DHT22;71068;47.662;-2.750;2023-12-20T15:20:03;13.80;77.10
81202;DHT22;71068;47.662;-2.750;2023-12-20T15:22:30;13.70;78.50
81202;DHT22;71068;47.662;-2.750;2023-12-20T15:24:59;13.60;78.50
81202;DHT22;71068;47.662;-2.750;2023-12-20T15:27:27;13.60;78.10
81202;DHT22;71068;47.662;-2.750;2023-12-20T15:29:54;13.80;77.40